Latest Weather Observations for West Roebuck

IDW60801

Issued at 5:05 pm WST Monday 15 September 2014 (issued every 30 minutes, with the page automatically refreshed every 10 minutes)

About weather observations | Map of weather stations | Latest weather observations for WA | Other Formats
Station Details ID: 003096 Name: WEST ROEBUCK Lat: -17.90 Lon: 122.31 Height: 32.0 m
Data from the previous 72 hours. | See also: Recent months for locations in Western Australia
Date/Time
WST
Temp
°C
App
Temp
°C
Dew
Point
Rel
Hum
%
Delta-T
°C
Wind Press
QNH
hPa
Press
MSL
hPa
Rain
since 9 am
mm
Dir
 
Spd
km/h
Gust
km/h
Spd
kts
Gust
kts
15/05:00pm 27.6 - - - - NW 19 26 10 14 - - 0.0
15/04:30pm 29.1 - - - - WNW 17 24 9 13 - - 0.0
15/04:00pm 29.5 - - - - NW 20 26 11 14 - - 0.0
15/03:30pm 30.3 - - - - WNW 19 28 10 15 - - 0.0
15/03:00pm 31.0 - - - - WNW 20 28 11 15 - - 0.0
15/02:30pm 31.7 - - - - W 20 30 11 16 - - 0.0
15/02:00pm 32.3 - - - - W 22 32 12 17 - - 0.0
15/01:30pm 32.8 - - - - W 22 30 12 16 - - 0.0
15/01:00pm 31.8 - - - - W 19 26 10 14 - - 0.0
15/12:30pm 34.2 - - - - W 17 26 9 14 - - 0.0
15/12:00pm 33.5 - - - - W 19 24 10 13 - - 0.0
15/11:30am 34.3 - - - - W 17 24 9 13 - - 0.0
15/11:00am 33.5 - - - - W 20 24 11 13 - - 0.0
15/10:30am 34.3 - - - - W 4 17 2 9 - - 0.0
15/10:00am 33.1 - - - - CALM 0 0 0 0 - - 0.0
15/09:30am 33.2 - - - - E 6 7 3 4 - - 0.0
15/09:00am 31.0 - - - - NW 4 9 2 5 - - 0.0
15/08:30am 30.2 - - - - E 6 11 3 6 - - 0.0
15/08:00am 27.8 - - - - E 7 9 4 5 - - 0.0
15/07:30am 25.6 - - - - ENE 7 9 4 5 - - 0.0
15/07:00am 22.6 - - - - NE 9 11 5 6 - - 0.0
15/06:30am 20.3 - - - - NE 9 13 5 7 - - 0.0
15/06:00am 19.2 - - - - NE 11 15 6 8 - - 0.0
15/05:30am 19.3 - - - - NE 9 11 5 6 - - 0.0
15/05:00am 19.4 - - - - NE 11 13 6 7 - - 0.0
15/04:30am 19.2 - - - - NE 9 13 5 7 - - 0.0
15/04:00am 19.0 - - - - NE 11 15 6 8 - - 0.0
15/03:30am 18.5 - - - - ESE 9 9 5 5 - - 0.0
15/03:00am 19.4 - - - - ESE 7 9 4 5 - - 0.0
15/02:30am 20.4 - - - - E 7 11 4 6 - - 0.0
15/02:00am 20.2 - - - - E 9 15 5 8 - - 0.0
15/01:30am 19.8 - - - - SE 9 17 5 9 - - 0.0
15/01:00am 20.4 - - - - SSE 2 7 1 4 - - 0.0
15/12:30am 20.8 - - - - W 7 11 4 6 - - 0.0
15/12:00am 21.3 - - - - WNW 7 11 4 6 - - 0.0
 
Date/Time
WST
Temp
°C
App
Temp
°C
Dew
Point
Rel
Hum
%
Delta-T
°C
Wind Press
QNH
hPa
Press
MSL
hPa
Rain
since 9 am
mm
Dir
 
Spd
km/h
Gust
km/h
Spd
kts
Gust
kts
14/11:30pm 21.7 - - - - N 7 9 4 5 - - 0.0
14/11:00pm 22.3 - - - - NNW 7 9 4 5 - - 0.0
14/10:30pm 22.3 - - - - NW 7 9 4 5 - - 0.0
14/10:00pm 22.6 - - - - WNW 9 9 5 5 - - 0.0
14/09:30pm 23.0 - - - - NW 9 11 5 6 - - 0.0
14/09:00pm 23.3 - - - - NW 9 11 5 6 - - 0.0
14/08:30pm 23.9 - - - - NW 11 13 6 7 - - 0.0
14/08:00pm 24.2 - - - - NW 11 17 6 9 - - 0.0
14/07:30pm 24.2 - - - - NW 13 17 7 9 - - 0.0
14/07:00pm 24.5 - - - - NW 11 17 6 9 - - 0.0
14/06:30pm 25.0 - - - - NW 11 17 6 9 - - 0.0
14/06:00pm 25.5 - - - - NW 15 24 8 13 - - 0.0
14/05:30pm 26.2 - - - - WNW 17 24 9 13 - - 0.0
14/05:00pm 26.8 - - - - NW 19 30 10 16 - - 0.0
14/04:30pm 28.2 - - - - NW 17 28 9 15 - - 0.0
14/04:00pm 29.6 - - - - WNW 17 24 9 13 - - 0.0
14/03:30pm 30.1 - - - - W 20 30 11 16 - - 0.0
14/03:00pm 30.3 - - - - W 20 28 11 15 - - 0.0
14/02:30pm 31.3 - - - - WNW 22 32 12 17 - - 0.0
14/02:00pm 32.1 - - - - W 20 28 11 15 - - 0.0
14/01:30pm 32.0 - - - - W 22 32 12 17 - - 0.0
14/01:00pm 31.9 - - - - W 22 30 12 16 - - 0.0
14/12:30pm 32.3 - - - - WSW 19 28 10 15 - - 0.0
14/12:00pm 33.8 - - - - W 11 22 6 12 - - 0.0
14/11:30am 35.7 - - - - NE 17 28 9 15 - - 0.0
14/11:00am 35.5 - - - - NE 22 32 12 17 - - 0.0
14/10:30am 33.7 - - - - N 17 24 9 13 - - 0.0
14/10:00am 33.3 - - - - NNE 20 28 11 15 - - 0.0
14/09:30am 32.0 - - - - E 9 17 5 9 - - 0.0
14/09:00am 27.7 - - - - E 9 13 5 7 - - 0.0
14/08:30am 25.6 - - - - ENE 11 17 6 9 - - 0.0
14/08:00am 27.1 - - - - ENE 13 20 7 11 - - 0.0
14/07:30am 24.7 - - - - E 11 15 6 8 - - 0.0
14/07:00am 21.7 - - - - E 13 17 7 9 - - 0.0
14/06:30am 18.5 - - - - E 13 15 7 8 - - 0.0
14/06:00am 16.9 - - - - E 9 11 5 6 - - 0.0
14/05:30am 17.7 - - - - NW 6 7 3 4 - - 0.0
14/05:00am 17.7 - - - - CALM 0 0 0 0 - - 0.0
14/04:30am 18.4 - - - - CALM 0 0 0 0 - - 0.0
14/04:00am 18.2 - - - - CALM 0 0 0 0 - - 0.0
14/03:30am 18.4 - - - - W 7 9 4 5 - - 0.0
14/03:00am 18.5 - - - - WNW 9 11 5 6 - - 0.0
14/02:30am 18.1 - - - - NNW 11 13 6 7 - - 0.0
14/02:00am 18.1 - - - - W 7 9 4 5 - - 0.0
14/01:30am 18.3 - - - - CALM 0 0 0 0 - - 0.0
14/01:00am 20.8 - - - - SW 6 6 3 3 - - 0.0
14/12:30am 20.4 - - - - W 4 7 2 4 - - 0.0
14/12:00am 22.4 - - - - SSW 9 9 5 5 - - 0.0
 
Date/Time
WST
Temp
°C
App
Temp
°C
Dew
Point
Rel
Hum
%
Delta-T
°C
Wind Press
QNH
hPa
Press
MSL
hPa
Rain
since 9 am
mm
Dir
 
Spd
km/h
Gust
km/h
Spd
kts
Gust
kts
13/11:30pm 22.2 - - - - SW 9 9 5 5 - - 0.0
13/11:00pm 21.4 - - - - SSW 6 9 3 5 - - 0.0
13/10:30pm 24.5 - - - - SSW 7 13 4 7 - - 0.0
13/10:00pm 23.5 - - - - ENE 2 9 1 5 - - 0.0
13/09:30pm 24.2 - - - - NE 7 9 4 5 - - 0.0
13/09:00pm 24.2 - - - - N 7 13 4 7 - - 0.0
13/08:30pm 25.7 - - - - SW 11 17 6 9 - - 0.0
13/08:00pm 26.4 - - - - SW 15 20 8 11 - - 0.0
13/07:30pm 26.9 - - - - SW 17 28 9 15 - - 0.0
13/07:00pm 27.6 - - - - SW 19 28 10 15 - - 0.0
13/06:30pm 27.7 - - - - SW 13 20 7 11 - - 0.0
13/06:00pm 28.0 - - - - SW 13 17 7 9 - - 0.0
13/05:30pm 30.1 - - - - SW 13 19 7 10 - - 0.0
13/05:00pm 32.1 - - - - SW 17 24 9 13 - - 0.0
13/04:30pm 34.0 - - - - SW 20 28 11 15 - - 0.0
13/04:00pm 35.4 - - - - SW 22 30 12 16 - - 0.0
13/03:30pm 36.8 - - - - SW 19 30 10 16 - - 0.0
13/03:00pm 36.3 - - - - WSW 22 32 12 17 - - 0.0
13/02:30pm 36.7 - - - - WSW 24 39 13 21 - - 0.0
13/02:00pm 37.2 - - - - WSW 22 32 12 17 - - 0.0
13/01:30pm 37.5 - - - - SW 22 33 12 18 - - 0.0
13/01:00pm 38.4 - - - - SW 20 32 11 17 - - 0.0
13/12:30pm 38.3 - - - - SW 20 32 11 17 - - 0.0
13/12:00pm 37.7 - - - - S 20 33 11 18 - - 0.0
13/11:30am 37.6 - - - - SSE 20 32 11 17 - - 0.0
13/11:00am 37.2 - - - - SSE 22 32 12 17 - - 0.0
13/10:30am 36.6 - - - - SE 19 28 10 15 - - 0.0
13/10:00am 35.5 - - - - CALM 0 0 0 0 - - 0.0
13/09:30am 35.1 - - - - CALM 0 0 0 0 - - 0.0
13/09:00am 32.3 - - - - CALM 0 0 0 0 - - 0.0
13/08:30am 30.8 - - - - CALM 0 0 0 0 - - 0.0
13/08:00am 28.7 - - - - CALM 0 0 0 0 - - 0.0
13/07:30am 27.2 - - - - CALM 0 0 0 0 - - 0.0
13/07:00am 24.6 - - - - CALM 0 0 0 0 - - 0.0
13/06:30am 21.7 - - - - CALM 0 0 0 0 - - 0.0
13/06:00am 19.6 - - - - CALM 0 0 0 0 - - 0.0
13/05:30am 17.8 - - - - CALM 0 0 0 0 - - 0.0
13/05:00am 17.3 - - - - CALM 0 0 0 0 - - 0.0
13/04:30am 17.8 - - - - CALM 0 0 0 0 - - 0.0
13/04:00am 17.7 - - - - CALM 0 0 0 0 - - 0.0
13/03:30am 16.6 - - - - CALM 0 0 0 0 - - 0.0
13/03:00am 17.3 - - - - NNW 9 13 5 7 - - 0.0
13/02:30am 18.5 - - - - NNW 7 9 4 5 - - 0.0
13/02:00am 18.1 - - - - NW 9 9 5 5 - - 0.0
13/01:30am 18.9 - - - - NW 9 11 5 6 - - 0.0
13/01:00am 18.8 - - - - WNW 9 11 5 6 - - 0.0
13/12:30am 19.5 - - - - NW 11 13 6 7 - - 0.0
13/12:00am 19.4 - - - - NW 9 9 5 5 - - 0.0
 
Date/Time
WST
Temp
°C
App
Temp
°C
Dew
Point
Rel
Hum
%
Delta-T
°C
Wind Press
QNH
hPa
Press
MSL
hPa
Rain
since 9 am
mm
Dir
 
Spd
km/h
Gust
km/h
Spd
kts
Gust
kts
12/11:30pm 20.2 - - - - NW 9 9 5 5 - - 0.0
12/11:00pm 20.5 - - - - W 13 17 7 9 - - 0.0
12/10:30pm 20.5 - - - - WNW 13 15 7 8 - - 0.0
12/10:00pm 20.9 - - - - NW 9 13 5 7 - - 0.0
12/09:30pm 20.7 - - - - WNW 13 17 7 9 - - 0.0
12/09:00pm 21.7 - - - - NNW 9 9 5 5 - - 0.0
12/08:30pm 21.1 - - - - WNW 11 13 6 7 - - 0.0
12/08:00pm 22.6 - - - - NNW 11 13 6 7 - - 0.0
12/07:30pm 24.9 - - - - N 7 9 4 5 - - 0.0
12/07:00pm 27.0 - - - - NW 4 9 2 5 - - 0.0
12/06:30pm 26.8 - - - - WNW 7 15 4 8 - - 0.0
12/06:00pm 26.5 - - - - S 11 15 6 8 - - 0.0
12/05:30pm 29.4 - - - - S 13 17 7 9 - - 0.0

Other Formats:

Comma delimited format used in spreadsheet applications
http://www.bom.gov.au/fwo/IDW60801/IDW60801.95204.axf

JavaScript Object Notation format (JSON) in row-major order
http://www.bom.gov.au/fwo/IDW60801/IDW60801.95204.json